Time;durP1;ratioP1;P1;durP2;ratioP2;P2;SDS_P1;SDS_P2;PMS_P1;PMS_P2;Temp;Humidity;BMP_temperature;BMP_pressure;BME280_temperature;BME280_humidity;BME280_pressure;Samples;Min_cycle;Max_cycle;Signal;HPM_P1;HPM_P2
2023/03/29 00:02:19;;;;;;;;;0.00;0.00;;;;;5.57;68.64;100066.31;5118300;28;8820;-61
2023/03/29 00:04:47;;;;;;;;;1.00;1.00;;;;;5.57;69.26;100061.91;5117796;28;8804;-61
2023/03/29 00:07:15;;;;;;;;;1.00;1.00;;;;;5.58;68.87;100053.03;5117468;28;9531;-60
2023/03/29 00:09:43;;;;;;;;;1.00;1.00;;;;;5.59;69.31;100045.94;5117775;28;9489;-61
2023/03/29 00:12:11;;;;;;;;;1.40;1.00;;;;;5.60;69.24;100045.00;5117699;28;8852;-61
2023/03/29 00:14:39;;;;;;;;;3.60;3.60;;;;;5.62;68.70;100048.41;5117286;28;8811;-61
2023/03/29 00:17:07;;;;;;;;;0.00;0.00;;;;;5.63;69.24;100039.56;5117497;28;8843;-60
2023/03/29 00:19:35;;;;;;;;;4.00;1.80;;;;;5.65;69.39;100037.66;5117872;28;9493;-61
2023/03/29 00:22:04;;;;;;;;;3.40;2.60;;;;;5.66;69.19;100031.44;5118093;28;8824;-59
2023/03/29 00:24:32;;;;;;;;;0.40;0.40;;;;;5.66;69.30;100032.31;5118251;28;8816;-61
2023/03/29 00:26:59;;;;;;;;;2.60;2.20;;;;;5.65;69.55;100021.81;5117866;28;8820;-59
2023/03/29 00:29:27;;;;;;;;;3.00;2.20;;;;;5.64;69.69;100025.41;5118426;28;8862;-61
2023/03/29 00:31:56;;;;;;;;;4.00;3.60;;;;;5.62;69.78;100022.00;5118312;28;8820;-61
2023/03/29 00:34:25;;;;;;;;;1.00;0.60;;;;;5.60;70.40;100024.72;5117936;28;8831;-60
2023/03/29 00:36:56;;;;;;;;;4.00;3.00;;;;;5.57;69.78;100018.78;5118235;28;9809;-58
2023/03/29 00:39:24;;;;;;;;;3.00;3.00;;;;;5.54;70.44;100011.88;5097684;28;8810;-60
2023/03/29 00:41:52;;;;;;;;;2.60;1.00;;;;;5.53;70.50;100014.63;5097345;28;8821;-61
2023/03/29 00:44:19;;;;;;;;;1.00;1.00;;;;;5.52;70.75;100020.81;5097273;28;8821;-60
2023/03/29 00:46:47;;;;;;;;;0.00;0.00;;;;;5.54;70.71;100008.41;5097681;28;8845;-59
2023/03/29 00:49:15;;;;;;;;;3.00;3.00;;;;;5.56;70.33;100011.78;5116411;28;8824;-61
2023/03/29 00:51:43;;;;;;;;;0.80;0.80;;;;;5.57;70.57;100002.94;5117978;28;8901;-61
2023/03/29 00:54:13;;;;;;;;;1.00;1.00;;;;;5.57;70.03;99998.50;5117817;28;8851;-60
2023/03/29 00:56:42;;;;;;;;;1.00;1.00;;;;;5.58;70.27;100001.97;5117696;28;8933;-59
2023/03/29 00:59:10;;;;;;;;;1.00;1.00;;;;;5.58;70.72;99994.94;5117648;28;8905;-61
2023/03/29 01:01:40;;;;;;;;;1.00;1.00;;;;;5.62;70.48;99990.31;5117648;28;8851;-61
2023/03/29 01:04:16;;;;;;;;;1.00;1.00;;;;;5.64;70.54;99985.78;5117619;28;8858;-61
2023/03/29 01:06:44;;;;;;;;;2.20;1.40;;;;;5.68;70.76;99990.78;5117538;28;8816;-61
2023/03/29 01:09:12;;;;;;;;;2.60;2.20;;;;;5.69;71.00;99987.22;5117444;28;8805;-61
2023/03/29 01:11:40;;;;;;;;;3.00;3.00;;;;;5.73;70.81;99985.22;5117845;28;8843;-59
2023/03/29 01:14:08;;;;;;;;;3.00;3.00;;;;;5.73;71.08;99988.75;5117670;28;8840;-60
2023/03/29 01:16:37;;;;;;;;;1.80;1.40;;;;;5.75;70.65;99984.22;5117621;28;8835;-61
2023/03/29 01:19:06;;;;;;;;;1.40;1.00;;;;;5.77;70.87;99982.31;5116954;28;8820;-61
2023/03/29 01:21:35;;;;;;;;;1.00;0.80;;;;;5.79;70.67;99979.59;5117430;28;8850;-59
2023/03/29 01:24:05;;;;;;;;;2.60;1.00;;;;;5.81;70.78;99970.69;5117313;28;8836;-61
2023/03/29 01:26:33;;;;;;;;;1.00;1.00;;;;;5.85;70.45;99958.13;5116814;28;8824;-60
2023/03/29 01:29:01;;;;;;;;;0.60;0.60;;;;;5.88;70.65;99968.50;5116334;28;8820;-60
2023/03/29 01:31:28;;;;;;;;;3.00;2.20;;;;;5.91;70.67;99968.34;5117197;28;8851;-60
2023/03/29 01:33:56;;;;;;;;;1.00;1.00;;;;;5.95;70.45;99956.63;5117252;28;8840;-60
2023/03/29 01:36:25;;;;;;;;;1.80;1.00;;;;;5.99;70.31;99960.78;5117109;28;8820;-61
2023/03/29 01:38:53;;;;;;;;;1.00;1.00;;;;;6.01;70.42;99954.44;5116752;28;8823;-61
2023/03/29 01:41:21;;;;;;;;;1.00;1.00;;;;;6.05;70.41;99952.47;5117061;28;8866;-61
2023/03/29 01:43:49;;;;;;;;;2.60;1.00;;;;;6.07;70.27;99945.31;5116749;28;8836;-59
2023/03/29 01:46:17;;;;;;;;;1.80;1.00;;;;;6.10;70.23;99937.19;5116831;28;8897;-61
2023/03/29 01:48:45;;;;;;;;;2.20;1.40;;;;;6.11;70.34;99933.59;5116605;28;8842;-61
2023/03/29 01:51:13;;;;;;;;;0.80;0.80;;;;;6.13;70.31;99929.06;5116905;28;8940;-60
2023/03/29 01:53:41;;;;;;;;;1.00;1.00;;;;;6.16;70.26;99934.16;5116627;28;8870;-61
2023/03/29 01:56:10;;;;;;;;;3.00;3.00;;;;;6.15;70.22;99917.44;5115961;28;8827;-61
2023/03/29 01:58:38;;;;;;;;;0.80;0.80;;;;;6.17;70.22;99925.28;5116277;28;8800;-61
2023/03/29 02:01:08;;;;;;;;;0.80;0.00;;;;;6.18;70.15;99925.22;5116799;28;8836;-61
2023/03/29 02:03:40;;;;;;;;;0.60;0.60;;;;;6.18;70.48;99912.00;5116708;28;8846;-61
2023/03/29 02:06:09;;;;;;;;;3.40;3.40;;;;;6.19;70.45;99912.81;5116783;28;8824;-61
2023/03/29 02:08:37;;;;;;;;;1.00;0.40;;;;;6.19;70.29;99902.25;5116521;28;8938;-61
2023/03/29 02:11:06;;;;;;;;;1.00;1.00;;;;;6.20;70.12;99898.66;5115913;28;8840;-61
2023/03/29 02:13:34;;;;;;;;;1.00;0.80;;;;;6.21;70.08;99897.72;5116439;28;9506;-61
2023/03/29 02:16:01;;;;;;;;;1.00;1.00;;;;;6.22;70.11;99896.78;5116263;28;8824;-61
2023/03/29 02:18:30;;;;;;;;;2.60;2.60;;;;;6.23;70.24;99887.91;5116241;28;8824;-61
2023/03/29 02:20:57;;;;;;;;;1.40;1.40;;;;;6.24;70.49;99879.03;5116495;28;8840;-58
2023/03/29 02:23:26;;;;;;;;;1.00;1.00;;;;;6.24;70.12;99884.31;5116727;28;8804;-60
2023/03/29 02:25:53;;;;;;;;;1.00;0.80;;;;;6.23;70.08;99886.09;5116384;28;8831;-61
2023/03/29 02:28:21;;;;;;;;;0.00;0.00;;;;;6.24;70.56;99887.81;5116082;28;8807;-61
2023/03/29 02:30:48;;;;;;;;;1.00;1.00;;;;;6.26;70.48;99892.97;5116253;28;8812;-61
2023/03/29 02:33:16;;;;;;;;;3.00;3.00;;;;;6.28;70.27;99884.00;5116228;28;8946;-61
2023/03/29 02:35:44;;;;;;;;;2.00;1.80;;;;;6.30;70.18;99894.50;5116390;28;8842;-61
2023/03/29 02:38:13;;;;;;;;;3.40;3.00;;;;;6.32;70.01;99882.91;5115915;28;8851;-61
2023/03/29 02:40:41;;;;;;;;;1.00;0.00;;;;;6.34;69.77;99888.94;5116014;28;8962;-60
2023/03/29 02:43:10;;;;;;;;;3.00;1.00;;;;;6.36;70.35;99891.47;5115644;28;8836;-60
2023/03/29 02:45:37;;;;;;;;;2.60;1.00;;;;;6.37;70.37;99895.81;5116219;28;8828;-61
2023/03/29 02:48:06;;;;;;;;;1.00;0.60;;;;;6.37;70.07;99880.78;5115785;28;8962;-61
2023/03/29 02:50:34;;;;;;;;;2.60;1.80;;;;;6.39;69.79;99878.91;5116014;28;8859;-61
2023/03/29 02:53:01;;;;;;;;;3.40;1.00;;;;;6.40;69.69;99879.75;5116412;28;8840;-61
2023/03/29 02:55:30;;;;;;;;;1.80;1.80;;;;;6.41;69.99;99860.28;5115746;28;8905;-61
2023/03/29 02:57:57;;;;;;;;;1.00;1.00;;;;;6.44;69.74;99857.47;5115776;28;8854;-60
2023/03/29 03:00:25;;;;;;;;;3.00;1.80;;;;;6.45;69.80;99840.66;5116012;28;9564;-60
2023/03/29 03:02:54;;;;;;;;;1.80;1.80;;;;;6.47;69.73;99844.03;5115673;28;8839;-61
2023/03/29 03:05:22;;;;;;;;;1.00;1.00;;;;;6.49;70.10;99843.00;5115853;28;8917;-61
2023/03/29 03:07:50;;;;;;;;;3.00;2.20;;;;;6.50;69.81;99855.25;5116683;28;8822;-61
2023/03/29 03:10:18;;;;;;;;;1.00;1.00;;;;;6.53;69.84;99835.72;5119609;28;8839;-61
2023/03/29 03:12:46;;;;;;;;;1.00;1.00;;;;;6.55;69.80;99839.94;5119930;28;8823;-61
2023/03/29 03:15:14;;;;;;;;;1.80;1.00;;;;;6.57;69.79;99835.41;5119853;28;8832;-60
2023/03/29 03:17:41;;;;;;;;;1.40;1.00;;;;;6.58;69.52;99841.53;5119377;28;9551;-61
2023/03/29 03:20:12;;;;;;;;;1.00;1.00;;;;;6.59;69.60;99825.56;5119733;28;8836;-59
2023/03/29 03:22:39;;;;;;;;;1.00;1.00;;;;;6.60;69.80;99829.91;5119767;28;8929;-60
2023/03/29 03:25:09;;;;;;;;;1.00;1.00;;;;;6.61;69.70;99833.41;5119747;28;8828;-61
2023/03/29 03:27:37;;;;;;;;;3.60;2.60;;;;;6.62;69.41;99832.44;5119100;28;8872;-59
2023/03/29 03:30:05;;;;;;;;;1.00;1.00;;;;;6.62;69.43;99820.09;5119401;28;8820;-60
2023/03/29 03:32:33;;;;;;;;;1.00;1.00;;;;;6.63;69.55;99821.78;5119394;28;8839;-59
2023/03/29 03:35:00;;;;;;;;;0.40;0.00;;;;;6.63;69.56;99820.91;5119536;28;8912;-61
2023/03/29 03:37:28;;;;;;;;;1.60;1.40;;;;;6.65;69.71;99825.16;5119367;28;8859;-61
2023/03/29 03:39:56;;;;;;;;;1.80;0.60;;;;;6.66;69.03;99828.69;5098947;28;8931;-61
2023/03/29 03:42:24;;;;;;;;;1.00;1.00;;;;;6.68;69.55;99824.13;5098688;28;8845;-61
2023/03/29 03:44:51;;;;;;;;;2.60;2.60;;;;;6.70;69.29;99835.44;5099125;28;8844;-60
2023/03/29 03:47:19;;;;;;;;;2.60;2.60;;;;;6.72;69.26;99817.66;5098690;28;8846;-61
2023/03/29 03:49:47;;;;;;;;;3.00;1.00;;;;;6.75;69.28;99833.34;5117921;28;8844;-59
2023/03/29 03:52:15;;;;;;;;;1.00;0.00;;;;;6.75;69.24;99825.41;5119391;28;8828;-61
2023/03/29 03:54:45;;;;;;;;;1.00;1.00;;;;;6.79;68.86;99824.25;5118993;28;8820;-61
2023/03/29 03:57:13;;;;;;;;;0.00;0.00;;;;;6.81;69.02;99836.44;5118736;28;8844;-60
2023/03/29 03:59:41;;;;;;;;;0.80;0.80;;;;;6.84;69.00;99838.03;5118253;28;8828;-60
2023/03/29 04:02:09;;;;;;;;;1.40;1.00;;;;;6.87;69.36;99827.22;5118303;28;8823;-61
2023/03/29 04:04:38;;;;;;;;;1.00;1.00;;;;;6.91;68.81;99831.38;5118701;28;8812;-61
2023/03/29 04:07:05;;;;;;;;;2.20;2.20;;;;;6.97;68.91;99828.34;5118154;28;8835;-61
2023/03/29 04:09:35;;;;;;;;;3.00;3.00;;;;;7.00;68.63;99820.19;5118282;28;8840;-60
2023/03/29 04:12:02;;;;;;;;;5.00;2.20;;;;;7.03;68.54;99820.81;5118591;28;8827;-61
2023/03/29 04:14:31;;;;;;;;;3.40;3.00;;;;;7.06;68.57;99830.38;5118071;28;9497;-60
2023/03/29 04:16:58;;;;;;;;;2.20;2.20;;;;;7.09;68.60;99832.78;5117964;28;8839;-61
2023/03/29 04:19:26;;;;;;;;;3.00;3.00;;;;;7.10;68.48;99831.84;5116628;28;8856;-61
2023/03/29 04:21:54;;;;;;;;;0.00;0.00;;;;;7.11;68.56;99828.22;5117914;28;8855;-60
2023/03/29 04:24:21;;;;;;;;;3.00;3.00;;;;;7.14;68.74;99833.34;5118515;28;8839;-61
2023/03/29 04:26:49;;;;;;;;;1.80;1.80;;;;;7.14;68.63;99828.03;5117901;28;8832;-59
2023/03/29 04:29:17;;;;;;;;;3.20;3.00;;;;;7.15;68.14;99827.09;5117514;28;8820;-61
2023/03/29 04:31:45;;;;;;;;;1.00;1.00;;;;;7.16;68.63;99823.47;5117782;28;8860;-61
2023/03/29 04:34:12;;;;;;;;;1.00;1.00;;;;;7.15;68.53;99830.59;5118169;28;8847;-61
2023/03/29 04:36:40;;;;;;;;;2.20;1.00;;;;;7.14;68.20;99818.28;5118068;28;8808;-61
2023/03/29 04:39:09;;;;;;;;;2.80;1.40;;;;;7.15;68.68;99821.78;5117477;28;8838;-58
2023/03/29 04:41:36;;;;;;;;;3.00;1.40;;;;;7.11;68.70;99820.28;5117055;28;9544;-61
2023/03/29 04:44:04;;;;;;;;;3.00;3.00;;;;;7.09;69.13;99816.91;5118379;28;8843;-59
2023/03/29 04:46:32;;;;;;;;;3.00;1.00;;;;;7.09;68.71;99822.19;5117625;28;8897;-59
2023/03/29 04:48:59;;;;;;;;;3.00;1.80;;;;;7.05;68.91;99810.97;5117669;28;8886;-61
2023/03/29 04:51:27;;;;;;;;;2.60;2.60;;;;;7.04;68.66;99814.56;5117611;28;8851;-60
2023/03/29 04:53:55;;;;;;;;;1.40;1.40;;;;;7.00;69.07;99809.59;5117641;28;8840;-59
2023/03/29 04:56:23;;;;;;;;;1.00;1.00;;;;;6.97;69.19;99823.88;5117119;28;8808;-59
2023/03/29 04:58:51;;;;;;;;;3.00;2.60;;;;;6.95;69.60;99809.03;5116766;28;8824;-61
2023/03/29 05:01:18;;;;;;;;;3.00;1.00;;;;;6.92;69.32;99811.91;5116411;28;8866;-59
2023/03/29 05:03:46;;;;;;;;;1.00;1.00;;;;;6.92;69.54;99803.97;5116692;28;8908;-59
2023/03/29 05:06:14;;;;;;;;;1.00;1.00;;;;;6.91;69.47;99799.63;5116426;28;8862;-58
2023/03/29 05:08:42;;;;;;;;;1.80;1.80;;;;;6.89;69.93;99809.47;5116789;28;8819;-58
2023/03/29 05:11:10;;;;;;;;;1.00;1.00;;;;;6.87;69.84;99798.13;5116125;28;9637;-58
2023/03/29 05:13:38;;;;;;;;;4.00;3.40;;;;;6.88;69.65;99805.09;5116401;28;8812;-59
2023/03/29 05:16:06;;;;;;;;;4.80;3.00;;;;;6.88;70.21;99783.94;5115703;28;8816;-59
2023/03/29 05:18:34;;;;;;;;;3.00;3.00;;;;;6.88;69.89;99794.53;5115548;28;8851;-61
2023/03/29 05:21:02;;;;;;;;;2.20;2.20;;;;;6.90;69.67;99795.28;5115591;28;8954;-61
2023/03/29 05:23:31;;;;;;;;;1.40;1.40;;;;;6.92;70.33;99799.53;5115658;28;8828;-61
2023/03/29 05:25:59;;;;;;;;;1.40;1.40;;;;;6.93;69.78;99792.44;5115413;28;8848;-61
2023/03/29 05:28:26;;;;;;;;;3.00;2.20;;;;;6.95;69.72;99801.97;5115113;28;8847;-61
2023/03/29 05:30:54;;;;;;;;;3.00;3.00;;;;;6.98;69.84;99801.75;5114072;28;8929;-61
2023/03/29 05:33:22;;;;;;;;;3.00;3.00;;;;;7.02;69.88;99799.75;5113728;28;8928;-59
2023/03/29 05:35:50;;;;;;;;;3.00;1.00;;;;;7.04;69.82;99796.03;5112743;28;8843;-60
2023/03/29 05:38:18;;;;;;;;;3.40;2.60;;;;;7.09;69.76;99798.38;5111452;28;8855;-61
2023/03/29 05:40:46;;;;;;;;;3.60;3.00;;;;;7.10;69.48;99795.63;5111019;28;8840;-58
2023/03/29 05:43:14;;;;;;;;;4.00;3.00;;;;;7.14;69.80;99801.56;5111856;28;8857;-59
2023/03/29 05:45:41;;;;;;;;;4.20;3.60;;;;;7.16;69.53;99797.88;5110036;28;8861;-61
2023/03/29 05:48:10;;;;;;;;;3.00;3.00;;;;;7.19;70.08;99800.28;5111786;28;8872;-60
2023/03/29 05:50:37;;;;;;;;;3.00;3.00;;;;;7.23;69.73;99798.28;5112142;28;8840;-59
2023/03/29 05:53:05;;;;;;;;;3.40;3.20;;;;;7.24;69.63;99805.28;5110800;28;8851;-61
2023/03/29 05:55:33;;;;;;;;;3.60;3.40;;;;;7.27;69.80;99805.09;5110204;28;8840;-60
2023/03/29 05:58:01;;;;;;;;;6.00;4.00;;;;;7.28;69.73;99809.44;5111036;28;8874;-61
2023/03/29 06:00:30;;;;;;;;;4.80;4.00;;;;;7.30;70.47;99812.81;5112100;28;8824;-59
2023/03/29 06:02:58;;;;;;;;;3.80;3.20;;;;;7.30;70.01;99807.50;5111749;28;9501;-59
2023/03/29 06:05:45;;;;;;;;;3.40;3.20;;;;;7.27;70.10;99802.44;5110058;28;8827;-59
2023/03/29 06:08:15;;;;;;;;;3.00;3.00;;;;;7.24;70.50;99813.22;5111146;28;8846;-61
2023/03/29 06:10:44;;;;;;;;;1.80;1.80;;;;;7.23;70.61;99814.19;5110863;28;8832;-59
2023/03/29 06:13:11;;;;;;;;;0.40;0.40;;;;;7.23;71.06;99809.75;5110517;28;8859;-61
2023/03/29 06:15:39;;;;;;;;;5.20;4.00;;;;;7.24;71.00;99810.56;5111165;28;8831;-58
2023/03/29 06:18:08;;;;;;;;;3.60;3.00;;;;;7.23;71.13;99804.44;5111221;28;9518;-59
2023/03/29 06:20:36;;;;;;;;;3.40;3.00;;;;;7.24;71.54;99803.50;5111910;28;8868;-59
2023/03/29 06:23:04;;;;;;;;;4.40;3.00;;;;;7.25;71.83;99797.25;5111733;28;8879;-59
2023/03/29 06:25:32;;;;;;;;;6.80;3.80;;;;;7.28;71.74;99801.47;5112542;28;8844;-59
2023/03/29 06:28:01;;;;;;;;;2.20;2.20;;;;;7.31;71.66;99804.78;5112542;28;8839;-59
2023/03/29 06:30:28;;;;;;;;;1.00;1.00;;;;;7.36;71.45;99799.16;5112589;28;8867;-60
2023/03/29 06:32:56;;;;;;;;;3.00;3.00;;;;;7.41;71.71;99794.38;5111091;28;8847;-59
2023/03/29 06:35:24;;;;;;;;;4.00;3.20;;;;;7.45;71.59;99807.31;5111409;28;9213;-61
2023/03/29 06:37:53;;;;;;;;;3.00;3.00;;;;;7.49;71.75;99803.50;5112858;28;8846;-59
2023/03/29 06:40:21;;;;;;;;;3.00;3.00;;;;;7.53;71.96;99796.19;5112589;28;8836;-61
2023/03/29 06:42:56;;;;;;;;;4.40;3.00;;;;;7.57;71.58;99803.81;5113029;28;8836;-61
2023/03/29 06:45:24;;;;;;;;;3.00;3.00;;;;;7.60;71.62;99798.31;5116612;28;9516;-60
2023/03/29 06:47:55;;;;;;;;;3.80;3.60;;;;;7.66;71.65;99800.50;5117163;28;8836;-61
2023/03/29 06:50:24;;;;;;;;;4.00;2.60;;;;;7.69;71.28;99798.50;5116883;28;8867;-60
2023/03/29 06:52:52;;;;;;;;;3.80;3.80;;;;;7.75;71.47;99807.84;5116044;28;8909;-61
2023/03/29 06:55:21;;;;;;;;;3.00;3.00;;;;;7.78;71.57;99802.31;5116242;28;8827;-61
2023/03/29 06:57:49;;;;;;;;;6.00;6.00;;;;;7.82;71.61;99801.13;5114771;28;8835;-59
2023/03/29 07:00:18;;;;;;;;;4.00;4.00;;;;;7.86;71.63;99807.91;5115112;28;8882;-61
2023/03/29 07:02:46;;;;;;;;;6.00;6.00;;;;;7.88;71.24;99809.50;5115754;28;8968;-61
2023/03/29 07:05:14;;;;;;;;;3.40;3.00;;;;;7.90;71.50;99806.75;5115573;28;8836;-60
2023/03/29 07:07:55;;;;;;;;;3.00;3.00;;;;;7.93;71.28;99812.69;5116469;28;8958;-61
2023/03/29 07:10:24;;;;;;;;;4.00;3.40;;;;;7.97;71.75;99818.59;5116706;28;8820;-59
2023/03/29 07:12:52;;;;;;;;;4.00;3.60;;;;;8.01;71.41;99812.13;5117460;28;8828;-59
2023/03/29 07:15:20;;;;;;;;;5.20;4.40;;;;;8.10;71.55;99816.75;5117656;28;8850;-61
2023/03/29 07:17:48;;;;;;;;;1.00;1.00;;;;;8.18;70.95;99811.75;5116218;28;8832;-60
2023/03/29 07:20:16;;;;;;;;;1.80;1.80;;;;;8.26;70.90;99810.28;5116133;28;8875;-59
2023/03/29 07:22:44;;;;;;;;;6.00;6.00;;;;;8.37;70.98;99807.69;5116003;28;8840;-58
2023/03/29 07:25:12;;;;;;;;;3.60;3.00;;;;;8.46;70.80;99812.34;5116113;28;9271;-59
2023/03/29 07:27:41;;;;;;;;;6.00;6.00;;;;;8.55;70.58;99810.81;5115055;28;8847;-58
2023/03/29 07:30:10;;;;;;;;;3.00;3.00;;;;;8.60;70.35;99804.19;5115814;28;8928;-59
2023/03/29 07:32:38;;;;;;;;;2.50;2.00;;;;;8.67;70.42;99808.09;5116388;28;8839;-61
2023/03/29 07:35:06;;;;;;;;;5.20;5.20;;;;;8.71;70.41;99798.97;5117070;28;8939;-61
2023/03/29 07:37:35;;;;;;;;;5.50;5.00;;;;;8.75;70.42;99797.75;5116867;28;8836;-60
2023/03/29 07:40:07;;;;;;;;;2.25;2.25;;;;;8.81;70.59;99807.94;5115776;28;8836;-61
2023/03/29 07:42:36;;;;;;;;;4.00;3.25;;;;;8.86;70.56;99794.31;5116503;28;8836;-60
2023/03/29 07:45:04;;;;;;;;;0.50;0.50;;;;;8.90;70.30;99795.78;5115260;28;8824;-61
2023/03/29 07:47:32;;;;;;;;;4.00;4.00;;;;;8.95;70.00;99797.13;5116209;28;8865;-61
2023/03/29 07:50:01;;;;;;;;;3.00;3.00;;;;;9.01;69.96;99804.63;5115810;28;8854;-60
2023/03/29 07:52:28;;;;;;;;;3.75;3.00;;;;;9.06;69.99;99807.81;5115856;28;8966;-62
2023/03/29 07:54:56;;;;;;;;;3.50;3.50;;;;;9.12;69.92;99809.97;5115005;28;8820;-60
2023/03/29 07:57:25;;;;;;;;;2.50;2.50;;;;;9.18;69.61;99809.50;5115674;28;8978;-59
2023/03/29 07:59:53;;;;;;;;;3.00;3.00;;;;;9.24;69.34;99806.38;5114547;28;8843;-59
2023/03/29 08:02:21;;;;;;;;;3.00;3.00;;;;;9.27;69.89;99811.47;5116019;28;9195;-59
2023/03/29 08:04:49;;;;;;;;;3.50;3.00;;;;;9.31;69.62;99818.25;5115720;28;8836;-61
2023/03/29 08:07:18;;;;;;;;;3.00;3.00;;;;;9.40;69.78;99814.88;5115464;28;8869;-59
2023/03/29 08:09:46;;;;;;;;;0.50;0.50;;;;;9.49;68.82;99802.69;5114378;28;8860;-59
2023/03/29 08:12:15;;;;;;;;;3.00;1.00;;;;;9.57;69.13;99809.09;5115101;28;8858;-62
2023/03/29 08:14:43;;;;;;;;;3.50;3.50;;;;;9.64;69.07;99812.16;5115084;28;8843;-61
2023/03/29 08:17:11;;;;;;;;;4.25;4.25;;;;;9.68;68.74;99811.78;5115589;28;9582;-60
2023/03/29 08:19:39;;;;;;;;;3.00;3.00;;;;;9.76;68.50;99813.81;5115132;28;8860;-60
2023/03/29 08:22:17;;;;;;;;;3.25;3.25;;;;;9.82;68.49;99811.56;5115266;28;8836;-59
2023/03/29 08:24:45;;;;;;;;;3.00;3.00;;;;;9.91;68.67;99805.50;5114783;28;8921;-60
2023/03/29 08:27:13;;;;;;;;;2.25;1.00;;;;;10.00;68.33;99794.13;5115115;28;8832;-60
2023/03/29 08:29:41;;;;;;;;;4.00;3.50;;;;;10.10;68.15;99797.78;5115188;28;8912;-62
2023/03/29 08:32:09;;;;;;;;;3.00;1.50;;;;;10.20;67.73;99784.59;5114510;28;8904;-61
2023/03/29 08:34:37;;;;;;;;;3.75;3.75;;;;;10.26;67.94;99782.25;5113415;28;8865;-61
2023/03/29 08:37:05;;;;;;;;;1.00;1.00;;;;;10.35;68.07;99773.56;5113517;28;8913;-60
2023/03/29 08:39:33;;;;;;;;;3.50;3.00;;;;;10.50;67.65;99766.97;5114360;28;9654;-60
2023/03/29 08:42:01;;;;;;;;;5.50;4.00;;;;;10.64;67.21;99760.50;5113186;28;8874;-62
2023/03/29 08:44:29;;;;;;;;;3.00;3.00;;;;;10.77;66.74;99766.50;5112363;28;8843;-61
2023/03/29 08:46:57;;;;;;;;;3.75;3.00;;;;;10.93;66.31;99772.25;5111757;28;8839;-61
2023/03/29 08:49:26;;;;;;;;;0.00;0.00;;;;;11.02;66.39;99780.31;5110688;28;8855;-61
2023/03/29 08:51:53;;;;;;;;;2.00;1.50;;;;;11.06;66.09;99792.41;5110747;28;8867;-61
2023/03/29 08:54:23;;;;;;;;;1.00;1.00;;;;;11.11;66.45;99784.88;5111297;28;9541;-59
2023/03/29 08:56:51;;;;;;;;;1.00;1.00;;;;;11.19;66.65;99779.75;5112373;28;9513;-61
2023/03/29 08:59:19;;;;;;;;;2.50;2.50;;;;;11.30;65.83;99776.16;5112378;28;8839;-61
2023/03/29 09:01:48;;;;;;;;;5.00;5.00;;;;;11.39;65.64;99776.19;5113058;28;8851;-61
2023/03/29 09:04:17;;;;;;;;;3.00;3.00;;;;;11.49;65.95;99782.47;5112405;28;8840;-60
2023/03/29 09:06:46;;;;;;;;;4.50;4.00;;;;;11.59;65.76;99786.03;5113389;28;8836;-60
2023/03/29 09:09:14;;;;;;;;;3.00;3.00;;;;;11.63;65.36;99773.28;5114497;28;8840;-62
2023/03/29 09:11:42;;;;;;;;;4.00;3.25;;;;;11.64;65.44;99774.97;5113190;28;8839;-61
2023/03/29 09:14:10;;;;;;;;;4.00;3.50;;;;;11.66;65.70;99778.34;5113043;28;8866;-60
2023/03/29 09:16:38;;;;;;;;;3.00;3.00;;;;;11.70;65.30;99779.78;5113191;28;8840;-62
2023/03/29 09:19:06;;;;;;;;;5.25;4.75;;;;;11.65;65.24;99780.19;5113636;28;8891;-61
2023/03/29 09:21:34;;;;;;;;;3.75;3.50;;;;;11.55;65.77;99781.94;5114230;28;8832;-62
2023/03/29 09:24:02;;;;;;;;;3.00;3.00;;;;;11.47;65.62;99784.41;5114123;28;8914;-61
2023/03/29 09:26:31;;;;;;;;;3.00;2.50;;;;;11.40;65.76;99777.91;5113639;28;8836;-61
2023/03/29 09:28:59;;;;;;;;;4.00;4.00;;;;;11.38;66.19;99787.84;5114010;28;8835;-61
2023/03/29 09:31:27;;;;;;;;;4.00;4.00;;;;;11.36;66.42;99787.13;5113229;28;8831;-61
2023/03/29 09:33:55;;;;;;;;;3.00;3.00;;;;;11.33;66.06;99794.56;5113354;28;8831;-59
2023/03/29 09:36:23;;;;;;;;;3.00;3.00;;;;;11.31;66.06;99794.66;5113836;28;8940;-59
2023/03/29 09:38:53;;;;;;;;;1.00;1.00;;;;;11.30;65.81;99793.00;5114221;28;8839;-61
2023/03/29 09:41:21;;;;;;;;;3.75;3.25;;;;;11.28;65.93;99805.59;5113576;28;8848;-62
2023/03/29 09:43:49;;;;;;;;;3.25;3.25;;;;;11.31;66.13;99797.34;5113592;28;8836;-61
2023/03/29 09:46:17;;;;;;;;;4.00;3.75;;;;;11.35;66.53;99797.91;5113737;28;8836;-61
2023/03/29 09:48:45;;;;;;;;;2.00;2.00;;;;;11.34;66.03;99794.44;5113611;28;8836;-58
2023/03/29 09:51:13;;;;;;;;;3.25;1.00;;;;;11.33;65.84;99797.22;5113709;28;8835;-61
2023/03/29 09:53:42;;;;;;;;;6.00;6.00;;;;;11.33;66.26;99791.88;5112532;28;8843;-61
2023/03/29 09:56:10;;;;;;;;;3.00;3.00;;;;;11.34;66.24;99789.09;5110337;28;8824;-61
2023/03/29 09:58:37;;;;;;;;;3.25;3.00;;;;;11.37;66.41;99790.66;5111970;28;8867;-61
2023/03/29 10:01:07;;;;;;;;;9.75;8.50;;;;;11.38;66.19;99787.84;5112174;28;8836;-61
2023/03/29 10:03:35;;;;;;;;;4.75;3.50;;;;;11.44;66.39;99783.84;5111770;28;8854;-60
2023/03/29 10:06:04;;;;;;;;;5.00;5.00;;;;;11.52;66.39;99787.50;5111041;28;8858;-61
2023/03/29 10:08:31;;;;;;;;;0.50;0.25;;;;;11.62;66.12;99790.28;5111579;28;8836;-61
2023/03/29 10:11:00;;;;;;;;;5.50;5.50;;;;;11.69;66.12;99786.94;5111943;28;8839;-59
2023/03/29 10:13:29;;;;;;;;;4.00;3.75;;;;;11.83;65.77;99767.06;5112492;28;8932;-60
2023/03/29 10:15:58;;;;;;;;;2.00;1.00;;;;;11.99;65.07;99770.91;5112584;28;9145;-60
2023/03/29 10:18:26;;;;;;;;;6.00;6.00;;;;;12.20;65.24;99772.53;5111772;28;8839;-62
2023/03/29 10:20:54;;;;;;;;;7.00;6.00;;;;;12.36;64.62;99769.34;5113231;28;8847;-62
2023/03/29 10:23:22;;;;;;;;;6.75;6.00;;;;;12.42;64.92;99769.66;5113123;28;8909;-59
2023/03/29 10:25:50;;;;;;;;;4.00;3.25;;;;;12.42;64.26;99771.47;5110835;28;8985;-60
2023/03/29 10:28:19;;;;;;;;;5.50;5.25;;;;;12.45;64.20;99761.34;5110012;28;8844;-59
2023/03/29 10:30:48;;;;;;;;;6.00;4.00;;;;;12.52;64.75;99764.28;5111073;28;9117;-58
2023/03/29 10:33:16;;;;;;;;;7.25;7.25;;;;;12.56;64.76;99766.59;5110875;28;8840;-60
2023/03/29 10:35:44;;;;;;;;;4.25;3.50;;;;;12.58;64.81;99759.25;5110393;28;8839;-61
2023/03/29 10:38:13;;;;;;;;;4.67;4.00;;;;;12.61;64.37;99755.47;5110761;28;8918;-61
2023/03/29 10:40:41;;;;;;;;;4.50;4.00;;;;;12.62;64.39;99760.66;5112004;28;8835;-60
2023/03/29 10:43:09;;;;;;;;;6.00;6.00;;;;;12.63;64.53;99762.38;5111502;28;8836;-61
2023/03/29 10:45:37;;;;;;;;;1.00;0.50;;;;;12.61;65.02;99768.84;5111741;28;8843;-61
2023/03/29 10:48:06;;;;;;;;;2.00;2.00;;;;;12.53;64.68;99760.66;5110992;28;8848;-62
2023/03/29 10:50:36;;;;;;;;;4.00;4.00;;;;;12.51;64.97;99767.97;5110838;28;8856;-61
2023/03/29 10:53:05;;;;;;;;;2.00;2.00;;;;;12.61;65.08;99763.50;5110564;28;8867;-61
2023/03/29 10:55:33;;;;;;;;;3.00;3.00;;;;;12.71;64.51;99772.34;5110431;28;9510;-62
2023/03/29 10:58:01;;;;;;;;;6.00;5.00;;;;;12.79;64.54;99761.81;5110680;28;8914;-61
2023/03/29 11:00:29;;;;;;;;;4.00;4.00;;;;;12.88;64.67;99758.28;5110829;28;8863;-59
2023/03/29 11:02:57;;;;;;;;;5.00;3.25;;;;;13.03;63.90;99756.91;5111584;28;8914;-59
2023/03/29 11:05:26;;;;;;;;;4.50;4.00;;;;;13.26;63.32;99744.91;5112899;28;8831;-59
2023/03/29 11:07:54;;;;;;;;;4.00;4.00;;;;;13.53;62.84;99753.00;5112103;28;8831;-61
2023/03/29 11:10:23;;;;;;;;;6.75;6.00;;;;;13.78;62.84;99747.88;5112252;28;8851;-59
2023/03/29 11:12:51;;;;;;;;;4.00;3.50;;;;;13.98;62.81;99737.91;5110160;28;8852;-59
2023/03/29 11:15:20;;;;;;;;;1.00;0.00;;;;;14.03;62.79;99730.28;5110174;28;8843;-61
2023/03/29 11:17:49;;;;;;;;;4.00;3.00;;;;;14.06;62.71;99735.31;5109986;28;8843;-60
2023/03/29 11:20:17;;;;;;;;;1.00;1.00;;;;;14.27;61.67;99728.75;5109919;28;8965;-62
2023/03/29 11:22:46;;;;;;;;;5.50;5.50;;;;;14.44;61.61;99727.09;5110660;28;8856;-61
2023/03/29 11:25:14;;;;;;;;;5.00;5.00;;;;;14.61;61.69;99719.06;5109841;28;8832;-60
2023/03/29 11:27:42;;;;;;;;;3.25;3.25;;;;;14.81;61.09;99717.91;5108867;28;9618;-60
2023/03/29 11:30:11;;;;;;;;;3.50;3.25;;;;;15.08;60.58;99715.13;5113147;28;8847;-61
2023/03/29 11:32:39;;;;;;;;;3.00;3.00;;;;;15.17;60.65;99710.66;5114874;28;8859;-60
2023/03/29 11:35:07;;;;;;;;;3.00;3.00;;;;;15.17;60.37;99714.19;5115075;28;8840;-59
2023/03/29 11:37:35;;;;;;;;;6.00;6.00;;;;;15.22;60.82;99708.34;5115906;28;9527;-60
2023/03/29 11:40:03;;;;;;;;;4.00;4.00;;;;;15.32;60.18;99712.63;5113027;28;9606;-62
2023/03/29 11:42:32;;;;;;;;;4.00;3.75;;;;;15.34;60.23;99710.66;5111073;28;8852;-59
2023/03/29 11:45:00;;;;;;;;;4.00;4.00;;;;;15.37;60.18;99706.78;5111358;28;8828;-60
2023/03/29 11:47:28;;;;;;;;;6.00;4.00;;;;;15.38;60.67;99712.00;5110782;28;8966;-59
2023/03/29 11:49:56;;;;;;;;;7.00;7.00;;;;;15.40;60.29;99706.50;5111538;28;8872;-62
2023/03/29 11:52:24;;;;;;;;;1.50;0.50;;;;;15.51;60.16;99708.91;5112082;28;8966;-60